^^
Grace C. Lehan Memorial Weather Station Historical Data
Daily Summary for February 18, 2021 Units:  Metric    English   Both
Daily Weekly Monthly Yearly
  High: Low: Average:
Temperature: 30.3 °C 11.4 °C 22.2 °C
Dew Point: 15.7 °C 9 °C 12.5 °C
Humidity: 88% 34% 57%
Wind Speed: 8km/h 0km/h 0.8km/h
Wind Gust: 20.9km/h - -
Wind- - SW
Pressure: 1016.1 hPa 1009 hPa -
Precipitation: 0 mm    
 
 
Tabular Data for February 18, 2021
Time Temperature Dew Point Pressure Wind Wind Speed Wind Gust Humidity Rainfall Rate (Hourly) solar
00:00 16.8 °C 9 °C 1014.8 hPa Calm   1.6 km/h 60% 0 mm 0 W/m2
00:09 16.6 °C 9.7 °C 1014.8 hPa Calm     63.4% 0 mm 0 W/m2
00:14 16.5 °C 9.8 °C 1014.8 hPa Calm     64.5% 0 mm 0 W/m2
00:19 16.3 °C 9.9 °C 1014.8 hPa Calm     65.6% 0 mm 0 W/m2
00:24 16.2 °C 9.9 °C 1014.8 hPa Calm     66.5% 0 mm 0 W/m2
00:29 16 °C 9.8 °C 1014.8 hPa Calm     66.7% 0 mm 0 W/m2
00:34 15.8 °C 9.9 °C 1014.8 hPa Calm     67.7% 0 mm 0 W/m2
00:39 15.7 °C 9.8 °C 1014.8 hPa Calm     68% 0 mm 0 W/m2
00:44 15.6 °C 9.7 °C 1014.8 hPa Calm     68% 0 mm 0 W/m2
00:49 15.5 °C 9.8 °C 1015.1 hPa Calm     68.8% 0 mm 0 W/m2
00:54 15.4 °C 9.7 °C 1014.8 hPa Calm     69% 0 mm 0 W/m2
00:59 15.3 °C 9.7 °C 1014.8 hPa Calm     69% 0 mm 0 W/m2
01:04 15.2 °C 9.6 °C 1014.8 hPa Calm     69% 0 mm 0 W/m2
01:09 15.2 °C 9.7 °C 1014.8 hPa Calm     70.1% 0 mm 0 W/m2
01:14 15.1 °C 9.7 °C 1014.8 hPa Calm     70.3% 0 mm 0 W/m2
01:19 15 °C 9.7 °C 1014.8 hPa Calm     70.5% 0 mm 0 W/m2
01:24 14.9 °C 9.6 °C 1014.8 hPa Calm     70.2% 0 mm 0 W/m2
01:29 14.9 °C 9.6 °C 1014.8 hPa Calm     70% 0 mm 0 W/m2
01:34 14.9 °C 9.6 °C 1014.8 hPa Calm     70% 0 mm 0 W/m2
01:39 14.9 °C 9.6 °C 1014.8 hPa Calm     70.4% 0 mm 0 W/m2
01:44 14.9 °C 9.8 °C 1014.8 hPa Calm     71.4% 0 mm 0 W/m2
01:49 14.8 °C 10 °C 1014.8 hPa Calm     73% 0 mm 0 W/m2
01:54 14.6 °C 9.7 °C 1014.8 hPa Calm     72.5% 0 mm 0 W/m2
01:59 14.5 °C 9.7 °C 1014.8 hPa Calm     73% 0 mm 0 W/m2
02:04 14.4 °C 9.7 °C 1014.8 hPa Calm     73.3% 0 mm 0 W/m2
02:09 14.4 °C 9.9 °C 1014.8 hPa Calm     74.1% 0 mm 0 W/m2
02:14 14.4 °C 10 °C 1014.8 hPa Calm     75% 0 mm 0 W/m2
02:19 14.3 °C 9.8 °C 1014.8 hPa Calm     74.3% 0 mm 0 W/m2
02:24 14.2 °C 9.7 °C 1014.8 hPa Calm     74% 0 mm 0 W/m2
02:29 14.2 °C 9.6 °C 1014.8 hPa Calm     74% 0 mm 0 W/m2
02:34 14.1 °C 9.4 °C 1014.8 hPa Calm     73.4% 0 mm 0 W/m2
02:39 14.1 °C 9.3 °C 1014.8 hPa Calm     73% 0 mm 0 W/m2
02:44 14.1 °C 9.4 °C 1014.8 hPa Calm     73.6% 0 mm 0 W/m2
02:49 14.1 °C 9.6 °C 1014.8 hPa Calm     74% 0 mm 0 W/m2
02:54 14.1 °C 9.5 °C 1014.8 hPa Calm     74.1% 0 mm 0 W/m2
02:59 14 °C 9.6 °C 1014.8 hPa Calm     75% 0 mm 0 W/m2
03:04 13.9 °C 9.8 °C 1014.8 hPa Calm     76% 0 mm 0 W/m2
03:09 13.8 °C 9.7 °C 1014.8 hPa Calm     76% 0 mm 0 W/m2
03:14 13.7 °C 9.8 °C 1014.8 hPa Calm     77% 0 mm 0 W/m2
03:19 13.6 °C 9.7 °C 1014.8 hPa Calm     77% 0 mm 0 W/m2
03:24 13.6 °C 9.6 °C 1014.8 hPa Calm     77.2% 0 mm 0 W/m2
03:29 13.4 °C 9.7 °C 1014.8 hPa Calm     78% 0 mm 0 W/m2
03:34 13.3 °C 9.7 °C 1014.8 hPa Calm     78.7% 0 mm 0 W/m2
03:39 13.2 °C 9.7 °C 1014.8 hPa Calm     79% 0 mm 0 W/m2
03:44 13.1 °C 9.6 °C 1014.8 hPa Calm     79.3% 0 mm 0 W/m2
03:49 12.9 °C 9.6 °C 1015.1 hPa Calm     80% 0 mm 0 W/m2
03:54 12.8 °C 9.5 °C 1015.1 hPa Calm     80.1% 0 mm 0 W/m2
03:59 12.8 °C 9.6 °C 1015.1 hPa Calm     80.8% 0 mm 0 W/m2
04:00 12.8 °C 9.4 °C 1015.1 hPa Calm     80% 0 mm 0 W/m2
04:09 12.6 °C 9.4 °C 1015.1 hPa Calm     81% 0 mm 0 W/m2
04:14 12.6 °C 9.4 °C 1015.1 hPa Calm     81% 0 mm 0 W/m2
04:19 12.5 °C 9.3 °C 1015.1 hPa Calm     81% 0 mm 0 W/m2
04:24 12.4 °C 9.3 °C 1015.1 hPa Calm     81.1% 0 mm 0 W/m2
04:29 12.3 °C 9.4 °C 1015.1 hPa Calm     82% 0 mm 0 W/m2
04:34 12.3 °C 9.3 °C 1015.5 hPa Calm     82% 0 mm 0 W/m2
04:39 12.2 °C 9.4 °C 1015.5 hPa Calm     82.9% 0 mm 0 W/m2
04:44 12.2 °C 9.4 °C 1015.5 hPa Calm     83% 0 mm 0 W/m2
04:49 12.1 °C 9.3 °C 1015.5 hPa Calm     83% 0 mm 0 W/m2
04:54 12.1 °C 9.3 °C 1015.5 hPa Calm     83.5% 0 mm 0 W/m2
04:59 11.9 °C 9.3 °C 1015.8 hPa Calm     83.8% 0 mm 0 W/m2
05:04 11.9 °C 9.3 °C 1015.5 hPa Calm     84% 0 mm 0 W/m2
05:09 11.8 °C 9.2 °C 1015.8 hPa Calm     84% 0 mm 0 W/m2
05:14 11.8 °C 9.2 °C 1015.8 hPa Calm     84% 0 mm 0 W/m2
05:19 11.7 °C 9.1 °C 1015.8 hPa Calm     84% 0 mm 0 W/m2
05:24 11.7 °C 9.2 °C 1015.8 hPa Calm     84.7% 0 mm 0 W/m2
05:29 11.7 °C 9.2 °C 1015.8 hPa Calm     85% 0 mm 5 W/m2
05:34 11.6 °C 9.2 °C 1015.8 hPa Calm     85% 0 mm 7 W/m2
05:39 11.6 °C 9.1 °C 1015.8 hPa Calm     85% 0 mm 9 W/m2
05:44 11.5 °C 9.1 °C 1015.8 hPa Calm     85% 0 mm 11 W/m2
05:49 11.4 °C 9.2 °C 1015.8 hPa Calm     85.7% 0 mm 14 W/m2
05:54 11.4 °C 9.2 °C 1015.8 hPa Calm     86% 0 mm 18 W/m2
05:59 11.4 °C 9.2 °C 1015.8 hPa Calm     86% 0 mm 18 W/m2
06:04 11.5 °C 9.4 °C 1015.8 hPa Calm     86.9% 0 mm 19 W/m2
06:09 11.6 °C 9.4 °C 1015.8 hPa Calm     87% 0 mm 19 W/m2
06:14 11.6 °C 9.6 °C 1015.8 hPa Calm     87% 0 mm 19 W/m2
06:19 11.7 °C 9.6 °C 1015.5 hPa Calm     87% 0 mm 21 W/m2
06:24 11.8 °C 9.7 °C 1015.8 hPa Calm     87% 0 mm 26 W/m2
06:29 11.9 °C 9.9 °C 1015.8 hPa Calm     87.3% 0 mm 35 W/m2
06:34 12.1 °C 10.2 °C 1015.8 hPa Calm     88% 0 mm 46 W/m2
06:39 12.2 °C 10.3 °C 1015.8 hPa Calm     88% 0 mm 49 W/m2
06:44 12.5 °C 10.6 °C 1015.8 hPa Calm     88% 0 mm 60 W/m2
06:49 13 °C 11.1 °C 1015.8 hPa Calm     88% 0 mm 67 W/m2
06:54 13.7 °C 11.6 °C 1015.8 hPa Calm     86.7% 0 mm 69 W/m2
06:59 14.6 °C 11.7 °C 1015.8 hPa Calm     83.1% 0 mm 70 W/m2
07:04 15.2 °C 12 °C 1016.1 hPa Calm     80.9% 0 mm 72 W/m2
07:09 15.9 °C 11.9 °C 1016.1 hPa Calm     77.3% 0 mm 74 W/m2
07:14 16.6 °C 12.2 °C 1015.8 hPa Calm     75.2% 0 mm 76 W/m2
07:19 17.3 °C 12.5 °C 1015.8 hPa Calm     73.6% 0 mm 77 W/m2
07:24 17.7 °C 12.6 °C 1015.8 hPa Calm     71.8% 0 mm 237 W/m2
07:29 18.3 °C 12.8 °C 1015.8 hPa Calm     70.5% 0 mm 345 W/m2
07:34 18.8 °C 13.1 °C 1015.8 hPa Calm     69.5% 0 mm 362 W/m2
07:39 19.3 °C 13.1 °C 1015.8 hPa Calm     67.2% 0 mm 380 W/m2
07:44 19.7 °C 13.1 °C 1015.8 hPa Calm     65.7% 0 mm 404 W/m2
07:49 20 °C 13.1 °C 1015.8 hPa Calm     64.5% 0 mm 422 W/m2
07:54 20.4 °C 13.2 °C 1015.5 hPa Calm     63.3% 0 mm 438 W/m2
07:59 20.8 °C 12.8 °C 1015.5 hPa Calm     60.4% 0 mm 452 W/m2
08:00 21.1 °C 12.2 °C 1015.5 hPa Calm     57% 0 mm 452 W/m2
08:09 21.6 °C 12.1 °C 1015.5 hPa Calm     54.7% 0 mm 483 W/m2
08:14 21.9 °C 12.3 °C 1015.5 hPa Calm     54.2% 0 mm 504 W/m2
08:19 22.2 °C 12.2 °C 1015.1 hPa Calm     53.4% 0 mm 520 W/m2
08:24 22.4 °C 12.4 °C 1015.1 hPa Calm     53.2% 0 mm 540 W/m2
08:29 22.7 °C 12.6 °C 1015.1 hPa Calm     52.8% 0 mm 557 W/m2
08:34 22.9 °C 12.8 °C 1015.1 hPa Calm     53% 0 mm 568 W/m2
08:39 23.2 °C 12.8 °C 1015.1 hPa Calm     52.2% 0 mm 587 W/m2
08:44 23.3 °C 13.1 °C 1015.1 hPa Calm     52.7% 0 mm 603 W/m2
08:49 23.6 °C 13.2 °C 1015.1 hPa Calm   1.6 km/h 52% 0 mm 621 W/m2
08:54 23.7 °C 13.3 °C 1015.1 hPa Calm   1.6 km/h 52.2% 0 mm 631 W/m2
08:59 23.9 °C 13.8 °C 1015.1 hPa Calm   1.6 km/h 53.1% 0 mm 645 W/m2
09:04 24.1 °C 13.3 °C 1015.1 hPa Calm   1.6 km/h 50.8% 0 mm 663 W/m2
09:09 24.2 °C 13.6 °C 1015.1 hPa Calm   3.2 km/h 51.4% 0 mm 666 W/m2
09:14 24.4 °C 13.7 °C 1015.1 hPa Calm   3.2 km/h 51.1% 0 mm 684 W/m2
09:19 24.7 °C 13.1 °C 1015.1 hPa Calm   3.2 km/h 48.5% 0 mm 693 W/m2
09:24 24.8 °C 13 °C 1015.1 hPa Calm   3.2 km/h 47.8% 0 mm 698 W/m2
09:29 24.9 °C 13.2 °C 1014.8 hPa Calm   3.2 km/h 48% 0 mm 693 W/m2
09:34 25.1 °C 13.2 °C 1014.8 hPa Calm   3.2 km/h 47.7% 0 mm 696 W/m2
09:39 25.2 °C 13.3 °C 1014.8 hPa Calm     47.6% 0 mm 701 W/m2
09:44 25.3 °C 13.7 °C 1014.8 hPa Calm   1.6 km/h 48.6% 0 mm 691 W/m2
09:49 25.5 °C 14 °C 1014.8 hPa Calm   1.6 km/h 49% 0 mm 717 W/m2
09:54 25.6 °C 13.3 °C 1014.8 hPa Calm   1.6 km/h 46.5% 0 mm 691 W/m2
09:59 25.7 °C 13.6 °C 1014.8 hPa Calm   3.2 km/h 47.3% 0 mm 645 W/m2
10:04 25.8 °C 13.6 °C 1014.8 hPa Calm   3.2 km/h 46.9% 0 mm 747 W/m2
10:09 25.9 °C 13.9 °C 1014.8 hPa Calm   3.2 km/h 47.3% 0 mm 696 W/m2
10:14 26.1 °C 13.7 °C 1014.8 hPa WNW 0.3 km/h 6.4 km/h 46.4% 0 mm 694 W/m2
10:19 26.3 °C 13.2 °C 1014.8 hPa WNW 0.2 km/h 6.4 km/h 44.4% 0 mm 657 W/m2
10:24 26.4 °C 13.7 °C 1014.4 hPa WSW 0.8 km/h 11.3 km/h 45.5% 0 mm 659 W/m2
10:29 26.5 °C 13 °C 1014.4 hPa WSW 0.6 km/h 11.3 km/h 43.2% 0 mm 740 W/m2
10:34 26.7 °C 13.2 °C 1014.1 hPa Calm   11.3 km/h 43.3% 0 mm 789 W/m2
10:39 26.8 °C 12.8 °C 1014.1 hPa SW 0.5 km/h 8 km/h 42% 0 mm 803 W/m2
10:44 26.9 °C 13.3 °C 1014.1 hPa West 1 km/h 9.7 km/h 43.2% 0 mm 789 W/m2
10:49 26.9 °C 13.4 °C 1014.1 hPa West 0.8 km/h 9.7 km/h 43.2% 0 mm 784 W/m2
10:54 27.1 °C 13.3 °C 1014.1 hPa WSW 1.8 km/h 9.7 km/h 42.6% 0 mm 837 W/m2
10:59 27.3 °C 13.1 °C 1014.1 hPa SW 2.4 km/h 9.7 km/h 41.4% 0 mm 840 W/m2
11:04 27.6 °C 13.1 °C 1013.8 hPa SW 2.9 km/h 9.7 km/h 40.9% 0 mm 854 W/m2
11:09 27.8 °C 13.2 °C 1013.8 hPa SW 2.7 km/h 19.3 km/h 40.6% 0 mm 932 W/m2
11:14 28 °C 13.1 °C 1013.8 hPa West 2.1 km/h 19.3 km/h 39.8% 0 mm 940 W/m2
11:19 28.3 °C 12.8 °C 1013.8 hPa West 0.8 km/h 19.3 km/h 38.4% 0 mm 951 W/m2
11:24 28.4 °C 13.2 °C 1013.8 hPa West 0.6 km/h 19.3 km/h 39.2% 0 mm 951 W/m2
11:29 28.5 °C 12.9 °C 1013.8 hPa West 1.4 km/h 19.3 km/h 38.3% 0 mm 953 W/m2
11:34 28.7 °C 13.3 °C 1013.8 hPa West 0.5 km/h 19.3 km/h 38.9% 0 mm 954 W/m2
11:39 28.9 °C 13.5 °C 1013.8 hPa SW 2.1 km/h 11.3 km/h 38.8% 0 mm 958 W/m2
11:44 29.1 °C 13.4 °C 1013.8 hPa Calm   11.3 km/h 38.1% 0 mm 962 W/m2
11:49 29.3 °C 13.7 °C 1013.8 hPa West 2.1 km/h 17.7 km/h 38.4% 0 mm 972 W/m2
11:54 29.5 °C 12.6 °C 1013.4 hPa WSW 1.1 km/h 17.7 km/h 35.3% 0 mm 976 W/m2
11:59 29.6 °C 12.5 °C 1013.4 hPa WSW 2.7 km/h 17.7 km/h 35.1% 0 mm 981 W/m2
12:04 29.5 °C 13.3 °C 1013.4 hPa Calm     37% 0 mm 988 W/m2
12:09 29.4 °C 12.6 °C 1013.4 hPa SW 2.4 km/h 9.7 km/h 35.4% 0 mm 990 W/m2
12:14 29.4 °C 12.2 °C 1013.4 hPa WSW 2.6 km/h 14.5 km/h 34.6% 0 mm 988 W/m2
12:19 29.5 °C 12.3 °C 1013.1 hPa WSW 2.7 km/h 16.1 km/h 34.6% 0 mm 991 W/m2
12:24 29.4 °C 12.1 °C 1013.1 hPa WSW 0.8 km/h 16.1 km/h 34.2% 0 mm 993 W/m2
12:29 29.4 °C 12.3 °C 1013.1 hPa SW 0.8 km/h 16.1 km/h 34.8% 0 mm 990 W/m2
12:34 29.4 °C 12.3 °C 1013.1 hPa SW 1.8 km/h 17.7 km/h 34.9% 0 mm 997 W/m2
12:39 29.4 °C 12.6 °C 1013.1 hPa SW 1.6 km/h 17.7 km/h 35.3% 0 mm 997 W/m2
12:44 29.6 °C 12.4 °C 1013.1 hPa WSW 3.1 km/h 20.9 km/h 35% 0 mm 997 W/m2
12:49 29.6 °C 12.2 °C 1013.1 hPa WSW 6.4 km/h 20.9 km/h 34.2% 0 mm 998 W/m2
12:54 29.6 °C 12.2 °C 1013.1 hPa SW 2.1 km/h 20.9 km/h 34.4% 0 mm 1000 W/m2
12:59 29.5 °C 12.7 °C 1013.1 hPa SW 1.6 km/h 20.9 km/h 35.8% 0 mm 1000 W/m2
13:04 29.6 °C 12.9 °C 1013.1 hPa West 2.3 km/h 20.9 km/h 35.9% 0 mm 998 W/m2
13:09 29.7 °C 13.1 °C 1013.1 hPa WSW 3.2 km/h 11.3 km/h 36.2% 0 mm 1000 W/m2
13:14 29.7 °C 12.8 °C 1013.1 hPa WSW 1.1 km/h 11.3 km/h 35.5% 0 mm 998 W/m2
13:19 29.7 °C 13.3 °C 1013.1 hPa WSW 2.1 km/h 11.3 km/h 36.5% 0 mm 997 W/m2
13:24 29.9 °C 13.3 °C 1013.1 hPa WSW 4.3 km/h 19.3 km/h 36.1% 0 mm 995 W/m2
13:29 30.1 °C 13.1 °C 1013.1 hPa WSW 2.3 km/h 19.3 km/h 35.2% 0 mm 995 W/m2
13:34 30.2 °C 12.9 °C 1013.1 hPa WNW 1.6 km/h 19.3 km/h 34.5% 0 mm 995 W/m2
13:39 30.3 °C 12.9 °C 1013.1 hPa South 1.8 km/h 12.9 km/h 34.5% 0 mm 988 W/m2
13:44 30.2 °C 12.6 °C 1012.8 hPa SSE 0.3 km/h 12.9 km/h 34% 0 mm 981 W/m2
13:49 30.1 °C 13.2 °C 1012.8 hPa SW 2.7 km/h 12.9 km/h 35.5% 0 mm 983 W/m2
13:54 30.1 °C 13.2 °C 1012.8 hPa WSW 2.6 km/h 12.9 km/h 35.6% 0 mm 979 W/m2
13:59 30.2 °C 13.3 °C 1012.8 hPa WSW 3.2 km/h 12.9 km/h 35.7% 0 mm 979 W/m2
14:04 30.2 °C 13.4 °C 1012.8 hPa SW 1.1 km/h 12.9 km/h 35.8% 0 mm 969 W/m2
14:09 30.1 °C 13.1 °C 1012.8 hPa SW 2.6 km/h 9.7 km/h 35.3% 0 mm 963 W/m2
14:14 30.1 °C 13.2 °C 1012.4 hPa WSW 3.2 km/h 9.7 km/h 35.6% 0 mm 960 W/m2
14:19 30.1 °C 13.4 °C 1012.4 hPa WSW 2.1 km/h 9.7 km/h 36% 0 mm 953 W/m2
14:24 30 °C 13.1 °C 1012.4 hPa SW 2.1 km/h 9.7 km/h 35.3% 0 mm 949 W/m2
14:29 29.9 °C 13.2 °C 1012.1 hPa WSW 1 km/h 9.7 km/h 35.9% 0 mm 933 W/m2
14:34 29.9 °C 13.4 °C 1012.1 hPa WSW 0.5 km/h 9.7 km/h 36.3% 0 mm 935 W/m2
14:39 29.9 °C 13.6 °C 1012.1 hPa West 1.4 km/h 11.3 km/h 36.7% 0 mm 930 W/m2
14:44 30 °C 13.7 °C 1011.7 hPa WSW 1 km/h 11.3 km/h 36.8% 0 mm 928 W/m2
14:49 30.1 °C 14.1 °C 1011.7 hPa West 2.3 km/h 11.3 km/h 37.7% 0 mm 932 W/m2
14:54 30.3 °C 14.1 °C 1011.7 hPa West 1.3 km/h 11.3 km/h 37.3% 0 mm 861 W/m2
14:59 30.3 °C 13.4 °C 1011.7 hPa SW 3.2 km/h 14.5 km/h 35.7% 0 mm 853 W/m2
15:04 30.2 °C 13.6 °C 1011.7 hPa SSW 0.6 km/h 14.5 km/h 36.2% 0 mm 612 W/m2
15:09 30 °C 13.5 °C 1011.7 hPa SW 3.1 km/h 11.3 km/h 36.3% 0 mm 803 W/m2
15:14 29.9 °C 13.6 °C 1011.7 hPa WSW 3.1 km/h 11.3 km/h 36.7% 0 mm 861 W/m2
15:19 29.9 °C 13.8 °C 1011.4 hPa SW 2.6 km/h 11.3 km/h 37.3% 0 mm 861 W/m2
15:24 30 °C 13.8 °C 1011.4 hPa SW 3.4 km/h 14.5 km/h 37.2% 0 mm 744 W/m2
15:28 30 °C 13.9 °C 1011.4 hPa SW 2.6 km/h 14.5 km/h 37.5% 0 mm 582 W/m2
15:34 30 °C 13.7 °C 1011.4 hPa WSW 4.3 km/h 14.5 km/h 36.9% 0 mm 520 W/m2
15:39 29.9 °C 13.6 °C 1011.4 hPa WSW 2.9 km/h 11.3 km/h 36.9% 0 mm 540 W/m2
15:44 29.7 °C 14.1 °C 1011.4 hPa SW 2.7 km/h 11.3 km/h 38.5% 0 mm 561 W/m2
15:48 29.6 °C 13.6 °C 1011.4 hPa SW 3.5 km/h 11.3 km/h 37.4% 0 mm 570 W/m2
16:04 29.4 °C 14.4 °C 1011.4 hPa SW 8 km/h 8 km/h 40% 0 mm 638 W/m2
16:09 29.4 °C 14 °C 1011.4 hPa SW 3.7 km/h 14.5 km/h 38.9% 0 mm 638 W/m2
16:14 29.4 °C 13.8 °C 1011.4 hPa SW 2.1 km/h 14.5 km/h 38.3% 0 mm 513 W/m2
16:19 29.4 °C 14 °C 1011.4 hPa WSW 4.5 km/h 16.1 km/h 38.9% 0 mm 151 W/m2
16:24 29.3 °C 13.6 °C 1011.4 hPa SSW 2.7 km/h 16.1 km/h 38.1% 0 mm 156 W/m2
16:29 29.1 °C 13.6 °C 1011.4 hPa SW 4.3 km/h 16.1 km/h 38.6% 0 mm 172 W/m2
16:34 28.9 °C 14.2 °C 1011.4 hPa SW 0.5 km/h 16.1 km/h 40.8% 0 mm 185 W/m2
16:39 28.8 °C 14.6 °C 1011.4 hPa SW 2.7 km/h 12.9 km/h 41.8% 0 mm 190 W/m2
16:44 28.8 °C 14.5 °C 1011.1 hPa WSW 3.4 km/h 12.9 km/h 41.7% 0 mm 190 W/m2
16:49 28.8 °C 14.6 °C 1011.1 hPa WSW 1.9 km/h 12.9 km/h 42% 0 mm 174 W/m2
16:54 28.9 °C 14.3 °C 1011.1 hPa WSW 2.6 km/h 12.9 km/h 40.7% 0 mm 148 W/m2
16:59 29 °C 14.4 °C 1011.1 hPa SW 2.3 km/h 12.9 km/h 41.2% 0 mm 123 W/m2
17:04 28.9 °C 14.6 °C 1010.7 hPa SW 3.2 km/h 12.9 km/h 41.6% 0 mm 125 W/m2
17:09 28.9 °C 14 °C 1010.7 hPa SW 2.3 km/h 11.3 km/h 40.1% 0 mm 125 W/m2
17:14 28.8 °C 14 °C 1010.7 hPa SW 1 km/h 11.3 km/h 40.4% 0 mm 127 W/m2
17:19 28.6 °C 14.1 °C 1010.7 hPa SW 0.8 km/h 11.3 km/h 41.2% 0 mm 132 W/m2
17:24 28.4 °C 14.2 °C 1010.7 hPa SW 1.1 km/h 11.3 km/h 41.5% 0 mm 134 W/m2
17:29 28.3 °C 14 °C 1010.7 hPa WSW 0.8 km/h 11.3 km/h 41.5% 0 mm 127 W/m2
17:34 28.2 °C 14.1 °C 1010.7 hPa WSW 2.1 km/h 11.3 km/h 42.1% 0 mm 114 W/m2
17:39 28.1 °C 13.9 °C 1010.4 hPa South 0.5 km/h 9.7 km/h 42% 0 mm 105 W/m2
17:44 27.9 °C 13.6 °C 1010.4 hPa South 0.5 km/h 9.7 km/h 41.5% 0 mm 98 W/m2
17:49 27.7 °C 13.7 °C 1010.4 hPa SSW 0.5 km/h 9.7 km/h 42% 0 mm 90 W/m2
17:54 27.7 °C 13.6 °C 1010 hPa SSW 1 km/h 9.7 km/h 42% 0 mm 83 W/m2
17:59 27.4 °C 13.1 °C 1010 hPa SSW 2.3 km/h 9.7 km/h 41% 0 mm 77 W/m2
18:04 27.2 °C 13 °C 1010 hPa South 1.1 km/h 9.7 km/h 41.5% 0 mm 72 W/m2
18:09 26.9 °C 13.4 °C 1010 hPa SSW 2.3 km/h 8 km/h 43.2% 0 mm 72 W/m2
18:14 26.7 °C 13.7 °C 1010 hPa SSW 1.6 km/h 8 km/h 44.6% 0 mm 79 W/m2
18:19 26.4 °C 13.8 °C 1010 hPa SSW 2.3 km/h 8 km/h 45.5% 0 mm 79 W/m2
18:24 26.3 °C 13.9 °C 1010 hPa SW 1.8 km/h 8 km/h 46.5% 0 mm 72 W/m2
18:29 26.1 °C 13.9 °C 1010 hPa SSW 4.5 km/h 14.5 km/h 47% 0 mm 63 W/m2
18:34 25.9 °C 13.6 °C 1010 hPa SW 3.7 km/h 14.5 km/h 46.7% 0 mm 60 W/m2
18:39 25.7 °C 13.6 °C 1010 hPa SW 2.1 km/h 12.9 km/h 47.1% 0 mm 58 W/m2
18:44 25.6 °C 13.7 °C 1010 hPa SW 2.4 km/h 14.5 km/h 47.8% 0 mm 49 W/m2
18:49 25.5 °C 13.6 °C 1010 hPa SW 1.9 km/h 14.5 km/h 47.7% 0 mm 44 W/m2
18:54 25.4 °C 13.7 °C 1010 hPa SW 0.5 km/h 14.5 km/h 48.2% 0 mm 39 W/m2
18:59 25.3 °C 13.7 °C 1010 hPa SSW 1.3 km/h 14.5 km/h 48.7% 0 mm 37 W/m2
19:04 25.2 °C 13.6 °C 1010 hPa SW 1.8 km/h 14.5 km/h 48.5% 0 mm 39 W/m2
19:09 25.1 °C 13.6 °C 1010 hPa SSW 1.4 km/h 9.7 km/h 48.6% 0 mm 39 W/m2
19:14 25 °C 13.6 °C 1009.7 hPa SSW 1.1 km/h 9.7 km/h 49.2% 0 mm 35 W/m2
19:19 24.9 °C 13.8 °C 1009.7 hPa SSW 0.6 km/h 9.7 km/h 50% 0 mm 28 W/m2
19:24 24.8 °C 13.7 °C 1009.7 hPa South 0.8 km/h 9.7 km/h 50% 0 mm 25 W/m2
19:29 24.7 °C 13.7 °C 1009.7 hPa South 0.2 km/h 9.7 km/h 50.2% 0 mm 21 W/m2
19:34 24.7 °C 13.8 °C 1009.7 hPa South 0.5 km/h 9.7 km/h 51% 0 mm 19 W/m2
19:39 24.6 °C 13.7 °C 1009.7 hPa South 0.2 km/h 8 km/h 51% 0 mm 21 W/m2
19:44 24.4 °C 13.7 °C 1009.7 hPa South 1 km/h 8 km/h 51.2% 0 mm 21 W/m2
19:49 24.3 °C 13.6 °C 1009.7 hPa South 0.5 km/h 8 km/h 51% 0 mm 19 W/m2
19:54 24.3 °C 13.5 °C 1009.7 hPa SSW 0.6 km/h 8 km/h 51% 0 mm 16 W/m2
19:59 24.2 °C 13.4 °C 1009.7 hPa SSW 0.8 km/h 8 km/h 51% 0 mm 12 W/m2
20:00 24.2 °C 13.4 °C 1009.7 hPa Calm   8 km/h 51% 0 mm 9 W/m2
20:09 24.1 °C 13.3 °C 1009.7 hPa SW 0.3 km/h 3.2 km/h 51.2% 0 mm 9 W/m2
20:14 24 °C 13.5 °C 1009.7 hPa SW 0.2 km/h 3.2 km/h 51.8% 0 mm 7 W/m2
20:19 23.9 °C 13.5 °C 1009.4 hPa SW 1.1 km/h 6.4 km/h 52% 0 mm 5 W/m2
20:24 23.8 °C 13.5 °C 1009.4 hPa SW 0.6 km/h 6.4 km/h 52.4% 0 mm 0 W/m2
20:29 23.8 °C 13.6 °C 1009.7 hPa SW 0.3 km/h 6.4 km/h 53% 0 mm 0 W/m2
20:34 23.7 °C 13.8 °C 1009.4 hPa SW 0.3 km/h 6.4 km/h 53.9% 0 mm 0 W/m2
20:39 23.6 °C 13.7 °C 1009.7 hPa SW 0.2 km/h 6.4 km/h 54% 0 mm 0 W/m2
20:44 23.5 °C 13.9 °C 1009.7 hPa SW 1 km/h 6.4 km/h 54.9% 0 mm 0 W/m2
20:49 23.4 °C 13.8 °C 1009.7 hPa SW 0.2 km/h 6.4 km/h 55% 0 mm 0 W/m2
20:54 23.3 °C 13.9 °C 1010 hPa SW 0.8 km/h 8 km/h 55.7% 0 mm 0 W/m2
20:59 23.2 °C 14.2 °C 1010 hPa SW 0.2 km/h 8 km/h 56.6% 0 mm 0 W/m2
21:04 23.2 °C 14.2 °C 1010 hPa SW 0.3 km/h 8 km/h 57% 0 mm 0 W/m2
21:09 23.1 °C 14.3 °C 1009.7 hPa Calm   4.8 km/h 57.6% 0 mm 0 W/m2
21:14 23 °C 14.3 °C 1010 hPa Calm   4.8 km/h 58.1% 0 mm 0 W/m2
21:19 22.9 °C 14.5 °C 1010 hPa SW 0.3 km/h 4.8 km/h 58.9% 0 mm 0 W/m2
21:24 22.9 °C 14.5 °C 1010 hPa SW 0.2 km/h 4.8 km/h 59.3% 0 mm 0 W/m2
21:29 22.8 °C 14.7 °C 1010 hPa Calm   4.8 km/h 60% 0 mm 0 W/m2
21:34 22.7 °C 14.6 °C 1010 hPa Calm   4.8 km/h 60% 0 mm 0 W/m2
21:39 22.7 °C 14.8 °C 1010 hPa Calm     60.9% 0 mm 0 W/m2
21:44 22.6 °C 14.8 °C 1010 hPa Calm     61.4% 0 mm 0 W/m2
21:49 22.6 °C 14.9 °C 1010 hPa Calm     61.8% 0 mm 0 W/m2
21:54 22.5 °C 14.9 °C 1010 hPa Calm     62% 0 mm 0 W/m2
21:59 22.4 °C 14.8 °C 1010 hPa Calm     62% 0 mm 0 W/m2
22:04 22.4 °C 14.9 °C 1010.4 hPa Calm     62.4% 0 mm 0 W/m2
22:09 22.4 °C 15 °C 1010.4 hPa Calm     63% 0 mm 0 W/m2
22:14 22.3 °C 15 °C 1010 hPa Calm     63.2% 0 mm 0 W/m2
22:19 22.3 °C 15.2 °C 1010 hPa Calm     64% 0 mm 0 W/m2
22:24 22.3 °C 15.2 °C 1010 hPa Calm     64.3% 0 mm 0 W/m2
22:29 22.3 °C 15.4 °C 1010 hPa Calm     65% 0 mm 0 W/m2
22:34 22.2 °C 15.3 °C 1010 hPa Calm     65% 0 mm 0 W/m2
22:39 22.2 °C 15.4 °C 1010 hPa Calm     65.3% 0 mm 0 W/m2
22:44 22.2 °C 15.5 °C 1010 hPa Calm     66% 0 mm 0 W/m2
22:49 22.1 °C 15.4 °C 1009.7 hPa Calm     66% 0 mm 0 W/m2
22:54 22.1 °C 15.4 °C 1009.7 hPa Calm   1.6 km/h 66% 0 mm 0 W/m2
22:59 21.9 °C 15.6 °C 1009.7 hPa Calm   1.6 km/h 67% 0 mm 0 W/m2
23:04 21.9 °C 15.5 °C 1009.7 hPa Calm   1.6 km/h 67% 0 mm 0 W/m2
23:09 21.8 °C 15.6 °C 1009.7 hPa Calm     67.8% 0 mm 0 W/m2
23:14 21.8 °C 15.6 °C 1009.7 hPa Calm     68% 0 mm 0 W/m2
23:19 21.7 °C 15.7 °C 1009.7 hPa Calm     68.6% 0 mm 0 W/m2
23:24 21.7 °C 15.7 °C 1009.7 hPa Calm     68.7% 0 mm 0 W/m2
23:29 21.6 °C 15.7 °C 1009.4 hPa SW 0.2 km/h 3.2 km/h 68.8% 0 mm 0 W/m2
23:34 21.6 °C 15.7 °C 1009.4 hPa Calm   3.2 km/h 68.9% 0 mm 0 W/m2
23:39 21.6 °C 15.6 °C 1009.4 hPa Calm   1.6 km/h 68.6% 0 mm 0 W/m2
23:44 21.6 °C 15.6 °C 1009.4 hPa Calm   1.6 km/h 69% 0 mm 0 W/m2
23:49 21.6 °C 15.6 °C 1009.4 hPa Calm   1.6 km/h 69% 0 mm 0 W/m2
23:54 21.5 °C 15.6 °C 1009 hPa Calm   1.6 km/h 69% 0 mm 0 W/m2
23:59 21.4 °C 15.6 °C 1009 hPa Calm   1.6 km/h 69% 0 mm 0 W/m2
Hartford County Weather
Compliments of Weather Underground - 2 mb